Absecon City, New Jersey
Current Conditions -  °F | °C
As of 9:54 AM on Thursday 30 Oct 2014 (Local Time) from KACY Reporting Station
Scattered Clouds Scattered Clouds  
Wind Chill: 12°   Ceiling: Unl
Heat Index: 12°   Visibility: 10mi
Dew Point:   Wind: 10mph
Humidity: 74%   Direction: 340°NNW
Pressure: 30.02"   Gusts: NA
Location:  39.4315°N, 74.5003°W
Report Text: KACY 301354Z 34009KT 10SM SCT070 12/07 A3002 RMK AO2 SLP164 T01170072
Loading
Personal Weather Stations






























Interactive Weather Map
Tropical Storm Tracking
New forecast layout! Learn more

10-Day Weather Forecast

Advertisements
Track Severe Weather on mobile